Nearby METAR Reports

 

KHEZ - Natchez/Hardy, Mississippi, USA
Distance from station: W 24mi, 38km
Updated: Sun, 18-Feb-2018 4:56pm CST
Clear
Clear
 Wind from calm
Wind: Calm
Temperature: 70°F , 21°C
Dew Point: 63°F , 17°C
Humidity: 78%
Barometer: 30.12 inHg , 1020 hPa
Clouds: Clear
Visibility: 10 miles , 16 km
2018/02/18 22:56 KHEZ 182256Z AUTO 00000KT 10SM CLR 21/17 A3012 RMK AO2 SLP203 T02110167
K1R7 - Brookhaven, Mississippi, USA
Distance from station: E 28mi, 46km
Updated: Wed, 21-Jun-2017 3:15pm CDT
NOT Current
Mostly cloudy
Mostly cloudy
 Wind from ENE
Wind: ENE 3 mph , 6 km/h
Temperature: 77°F , 25°C
Dew Point: 75°F , 24°C
Humidity: 94%
Barometer: 29.83 inHg , 1010.2 hPa
Clouds: Mostly cloudy
Visibility: 10 miles , 16 km
Cloud details: Mostly cloudy 500 ft
2017/06/21 20:15 K1R7 212015Z AUTO 06003KT 10SM BKN005 25/24 A2983 RMK AO2
 
KMCB - Mccomb, Mississippi, USA
Distance from station: SE 38mi, 61km
Updated: Sun, 18-Feb-2018 4:53pm CST
Clear
Clear
 Wind from SSW
Wind: SSW 5 mph , 7 km/h
Temperature: 75°F , 24°C
Dew Point: 59°F , 15°C
Humidity: 57%
Barometer: 30.12 inHg , 1020 hPa
Clouds: Clear
Visibility: 10 miles , 16 km
2018/02/18 22:53 KMCB 182253Z AUTO 21004KT 10SM CLR 24/15 A3012 RMK AO2 SLP197 T02440150
KTVR - Tallulah/Vicksbu, Louisiana, USA
Distance from station: N 53mi, 86km
Updated: Sun, 18-Feb-2018 5:20pm CST
Partly cloudy
Partly cloudy
 Wind from SSE
Wind: SSE 7 mph , 11 km/h
Temperature: 64°F , 18°C
Dew Point: 63°F , 17°C
Humidity: 94%
Barometer: 30.12 inHg , 1020 hPa
Clouds: Partly cloudy
Visibility: 10 miles , 16 km
Cloud details: Partly cloudy 2300 ft
2018/02/18 23:20 KTVR 182320Z AUTO 16006KT 10SM SCT023 18/17 A3012 RMK AO2 T01780167
 
KJVW - Raymond, Mississippi, USA
Distance from station: NNE 57mi, 91km
Updated: Sun, 18-Feb-2018 5:15pm CST
Few Clouds
Few Clouds
 
Temperature: 64°F , 18°C
Dew Point: 59°F , 15°C
Humidity: 83%
Barometer: 30.14 inHg , 1020.7 hPa
Clouds: Few Clouds
Visibility: 8 miles , 13 km
Cloud details: Few Clouds 1400 ft
2018/02/18 23:15 KJVW 182315Z AUTO 8SM FEW014 18/15 A3014 RMK AO2
KHKS - Jackson/Hawkins, Mississippi, USA
Distance from station: NE 65mi, 105km
Updated: Sun, 18-Feb-2018 4:53pm CST
Partly cloudy
Partly cloudy
 Wind from SSE
Wind: SSE 3 mph , 6 km/h
Temperature: 64°F , 18°C
Dew Point: 59°F , 15°C
Humidity: 83%
Barometer: 30.14 inHg , 1020.7 hPa
Clouds: Partly cloudy
Visibility: 10 miles , 16 km
Cloud details: Partly cloudy 1500 ft
2018/02/18 22:53 KHKS 182253Z 16003KT 10SM SCT015 18/15 A3014 RMK AO2 SLP201 T01780150
 
KHZR - New Roads, Louisiana, USA
Distance from station: SSW 69mi, 112km
Updated: Sun, 18-Feb-2018 5:15pm CST
Partly cloudy
Partly cloudy
 Wind from S
Wind: S 7 mph , 11 km/h
Temperature: 79°F , 26°C
Dew Point: 59°F , 15°C
Humidity: 51%
Barometer: 30.10 inHg , 1019.3 hPa
Clouds: Partly cloudy
Visibility: 10 miles , 16 km
Cloud details: Partly cloudy 5000 ft
2018/02/18 23:15 KHZR 182315Z AUTO 19006KT 10SM SCT050 26/15 A3010 RMK AO2 T02600150
KJAN - Jackson, Mississippi, USA
Distance from station: NE 69mi, 112km
Updated: Sun, 18-Feb-2018 4:54pm CST
Mostly cloudy
Mostly cloudy
 Wind from calm
Wind: Calm
Temperature: 63°F , 17°C
Dew Point: 57°F , 14°C
Humidity: 83%
Barometer: 30.14 inHg , 1020.7 hPa
Clouds: Mostly cloudy
Visibility: 10 miles , 16 km
Cloud details: Mostly cloudy 25000 ft
2018/02/18 22:54 KJAN 182254Z 00000KT 10SM BKN250 17/14 A3014 RMK AO2 SLP203 T01720144
 
KBTR - Baton Rouge, Louisiana, USA
Distance from station: S 74mi, 120km
Updated: Sun, 18-Feb-2018 4:53pm CST
Partly cloudy
Partly cloudy
 Wind from SSE
Wind: SSE 13 mph , 20 km/h
Temperature: 79°F , 26°C
Dew Point: 59°F , 15°C
Humidity: 51%
Barometer: 30.10 inHg , 1019.3 hPa
Clouds: Partly cloudy
Visibility: 10 miles , 16 km
Cloud details: Partly cloudy 4600 ft
2018/02/18 22:53 KBTR 182253Z 16011KT 10SM SCT046 26/15 A3010 RMK AO2 SLP191 T02560150
KHDC - Hammond, Louisiana, USA
Distance from station: SSE 79mi, 128km
Updated: Sun, 18-Feb-2018 5:15pm CST
Clear
Clear
 Wind from SE
Wind: SE 10 mph , 17 km/h
Temperature: 73°F , 23°C
Dew Point: 63°F , 17°C
Humidity: 69%
Barometer: 30.13 inHg , 1020.3 hPa
Clouds: Clear
Visibility: 10 miles , 16 km
2018/02/18 23:15 KHDC 182315Z AUTO 14009KT 10SM CLR 23/17 A3013 RMK AO2
 
KBXA - Bogalusa Carr F, Louisiana, USA
Distance from station: SE 81mi, 130km
Updated: Sun, 18-Feb-2018 5:15pm CST
Clear
Clear
 Wind from SW
Wind: SW 7 mph , 11 km/h
Temperature: 77°F , 25°C
Dew Point: 59°F , 15°C
Humidity: 54%
Barometer: 30.14 inHg , 1020.7 hPa
Clouds: Clear
Visibility: 10 miles , 16 km
2018/02/18 23:15 KBXA 182315Z AUTO 22006KT 10SM CLR 25/15 A3014 RMK AO2 T02530153
KESF - Alexandria, Louisiana, USA
Distance from station: W 83mi, 133km
Updated: Sun, 18-Feb-2018 5:24pm CST
Mostly cloudy
Mostly cloudy
 Wind from calm
Wind: Calm
Temperature: 66°F , 19°C
Dew Point: 63°F , 17°C
Humidity: 88%
Barometer: 30.10 inHg , 1019.3 hPa
Clouds: Mostly cloudy
Visibility: 10 miles , 16 km
Cloud details: Mostly cloudy 1700 ft
2018/02/18 23:24 KESF 182324Z AUTO 00000KT 10SM BKN017 19/17 A3010 RMK AO2 T01940172
 
KMLU - Monroe, Louisiana, USA
Distance from station: NW 92mi, 149km
Updated: Sun, 18-Feb-2018 5:23pm CST
Partly cloudy
Partly cloudy
 Wind from varies
Wind: varies 3 mph , 6 km/h
Temperature: 63°F , 17°C
Dew Point: 57°F , 14°C
Humidity: 83%
Barometer: 30.10 inHg , 1019.3 hPa
Clouds: Partly cloudy
Visibility: 10 miles , 16 km
Cloud details: Partly cloudy 2000 ft
2018/02/18 23:23 KMLU 182323Z VRB03KT 10SM SCT020 17/14 A3010 RMK AO2 T01720144
KPIB - Pine Belt Rgnl, Mississippi, USA
Distance from station: E 94mi, 150km
Updated: Sun, 18-Feb-2018 4:56pm CST
Partly cloudy
Partly cloudy
 Wind from SSE
Wind: SSE 6 mph , 9 km/h
Temperature: 73°F , 23°C
Dew Point: 61°F , 16°C
Humidity: 65%
Barometer: 30.15 inHg , 1021 hPa
Clouds: Partly cloudy
Visibility: 10 miles , 16 km
Cloud details: Partly cloudy 100 ft
2018/02/18 22:56 KPIB 182256Z AUTO 16005KT 10SM SCT001 23/16 A3015 RMK AO2 SLP210 T02330161
 
KL38 - Gonzales, Louisiana, USA
Distance from station: S 98mi, 158km
Updated: Fri, 03-Mar-2017 2:50pm CST
NOT Current
Clear
Clear
 Wind from ESE
Wind: ESE 8 mph , 13 km/h
Temperature: 70°F , 21°C
Dew Point: 30°F , -1°C
Humidity: 23%
Barometer: 30.46 inHg , 1031.5 hPa
Clouds: Clear
Visibility: 10 miles , 16 km
2017/03/03 20:50 KL38 032050Z AUTO 11007KT 10SM CLR 21/M01 A3046 RMK AO2 T02061013
KBQP - Bastrop Morehous, Louisiana, USA
Distance from station: NW 99mi, 159km
Updated: Sun, 18-Feb-2018 5:15pm CST
Overcast
Overcast
 Wind from calm
Wind: Calm
Temperature: 61°F , 16°C
Dew Point: 61°F , 16°C
Humidity: 100%
Barometer: 30.10 inHg , 1019.3 hPa
Clouds: Overcast
Visibility: 10 miles , 16 km
Cloud details: Overcast 1800 ft
2018/02/18 23:15 KBQP 182315Z AUTO 00000KT 10SM OVC018 16/16 A3010 RMK AO2 T01600156
 
KHBG - Hattiesburg, Mississippi, USA
Distance from station: ESE 100mi, 160km
Updated: Sun, 18-Feb-2018 4:53pm CST
Clear
Clear
 Wind from SE
Wind: SE 6 mph , 9 km/h
Temperature: 75°F , 24°C
Dew Point: 63°F , 17°C
Humidity: 65%
Barometer: 30.15 inHg , 1021 hPa
Clouds: Clear
Visibility: 10 miles , 16 km
2018/02/18 22:53 KHBG 182253Z AUTO 13005KT 10SM CLR 24/17 A3015 RMK AO2 SLP207 T02390167
KAEX - Alexandria, Louisiana, USA
Distance from station: W 100mi, 161km
Updated: Sun, 18-Feb-2018 4:53pm CST
Few Clouds
Few Clouds
 Wind from calm
Wind: Calm
Temperature: 66°F , 19°C
Dew Point: 63°F , 17°C
Humidity: 88%
Barometer: 30.08 inHg , 1018.6 hPa
Clouds: Few Clouds
Visibility: 9 miles , 14 km
Cloud details: Few Clouds 1800 ft
2018/02/18 22:53 KAEX 182253Z 00000KT 9SM FEW018 19/17 A3008 RMK AO2 SLP190 T01890167
 
KOPL - Opelousas, Louisiana, USA
Distance from station: SW 101mi, 162km
Updated: Sun, 18-Feb-2018 5:15pm CST
Clear
Clear
 Wind from SSW
Wind: SSW 8 mph , 13 km/h
Temperature: 73°F , 23°C
Dew Point: 63°F , 17°C
Humidity: 69%
Barometer: 30.10 inHg , 1019.3 hPa
Clouds: Clear
Visibility: 10 miles , 16 km
2018/02/18 23:15 KOPL 182315Z AUTO 20007KT 10SM CLR 23/17 A3010 RMK AO2 T02300173
KASD - Slidell 22, Louisiana, USA
Distance from station: SE 107mi, 172km
Updated: Sun, 18-Feb-2018 4:53pm CST
Clear
Clear
 Wind from SE
Wind: SE 8 mph , 13 km/h
Temperature: 75°F , 24°C
Dew Point: 64°F , 18°C
Humidity: 69%
Barometer: 30.13 inHg , 1020.3 hPa
Clouds: Clear
Visibility: 10 miles , 16 km
2018/02/18 22:53 KASD 182253Z AUTO 14007KT 10SM CLR 24/18 A3013 RMK AO2 SLP204 T02390178